createdAt,value
2017-10-26T00:00:09.429Z,3.77
2017-10-26T00:02:36.897Z,3.97
2017-10-26T00:05:04.354Z,4.93
2017-10-26T00:07:31.834Z,4.27
2017-10-26T00:09:59.287Z,3.47
2017-10-26T00:12:26.842Z,3.30
2017-10-26T00:14:54.397Z,3.40
2017-10-26T00:17:21.846Z,3.60
2017-10-26T00:19:49.297Z,3.83
2017-10-26T00:22:16.745Z,3.17
2017-10-26T00:24:44.191Z,3.80
2017-10-26T00:27:11.673Z,4.83
2017-10-26T00:29:39.121Z,4.47
2017-10-26T00:32:06.592Z,3.63
2017-10-26T00:34:34.033Z,3.70
2017-10-26T00:37:01.598Z,3.27
2017-10-26T00:39:29.053Z,3.40
2017-10-26T00:41:56.510Z,3.40
2017-10-26T00:44:24.070Z,3.70
2017-10-26T00:46:51.530Z,3.30
2017-10-26T00:49:18.974Z,3.47
2017-10-26T00:51:46.446Z,4.00
2017-10-26T00:54:13.942Z,4.20
2017-10-26T00:56:41.402Z,3.50
2017-10-26T00:59:08.858Z,3.60
2017-10-26T01:01:36.314Z,3.27
2017-10-26T01:04:03.775Z,3.73
2017-10-26T01:06:31.234Z,4.60
2017-10-26T01:08:58.693Z,3.10
2017-10-26T01:11:26.178Z,3.97
2017-10-26T01:13:53.741Z,3.67
2017-10-26T01:16:21.293Z,5.23
2017-10-26T01:18:48.844Z,3.77
2017-10-26T01:21:16.411Z,4.33
2017-10-26T01:23:43.961Z,4.30
2017-10-26T01:26:11.417Z,3.77
2017-10-26T01:28:38.877Z,3.40
2017-10-26T01:31:06.327Z,3.83
2017-10-26T01:33:33.793Z,3.70
2017-10-26T01:36:01.261Z,3.77
2017-10-26T01:38:28.804Z,3.90
2017-10-26T01:40:56.246Z,4.00
2017-10-26T01:43:23.737Z,3.70
2017-10-26T01:45:51.276Z,3.47
2017-10-26T01:48:18.885Z,3.87
2017-10-26T01:50:46.333Z,3.40
2017-10-26T01:53:13.781Z,3.83
2017-10-26T01:55:42.009Z,3.60
2017-10-26T01:58:09.473Z,3.37
2017-10-26T02:00:37.029Z,3.90
2017-10-26T02:03:04.598Z,3.93
2017-10-26T02:05:32.060Z,4.77
2017-10-26T02:07:59.621Z,3.77
2017-10-26T02:10:27.096Z,6.10
2017-10-26T02:12:55.328Z,4.40
2017-10-26T02:15:22.834Z,4.63
2017-10-26T02:17:51.056Z,5.63
2017-10-26T02:20:18.509Z,4.60
2017-10-26T02:22:45.979Z,4.37
2017-10-26T02:25:13.534Z,5.03
2017-10-26T02:27:41.095Z,5.53
2017-10-26T02:30:20.428Z,4.43
2017-10-26T02:32:47.891Z,4.50
2017-10-26T02:35:15.353Z,6.87
2017-10-26T02:37:42.809Z,6.50
2017-10-26T02:40:10.414Z,9.10
2017-10-26T02:42:37.879Z,5.93
2017-10-26T02:45:05.359Z,6.57
2017-10-26T02:47:32.915Z,7.00
2017-10-26T02:50:00.367Z,6.70
2017-10-26T02:52:27.811Z,5.90
2017-10-26T02:54:55.265Z,6.53
2017-10-26T02:57:22.713Z,6.40
2017-10-26T02:59:50.183Z,7.03
2017-10-26T03:02:17.620Z,8.33
2017-10-26T03:04:45.070Z,7.20
2017-10-26T03:07:12.517Z,9.03
2017-10-26T03:09:39.985Z,7.60
2017-10-26T03:12:07.476Z,7.50
2017-10-26T03:14:34.934Z,7.77
2017-10-26T03:17:02.388Z,8.33
2017-10-26T03:19:29.821Z,8.50
2017-10-26T03:21:57.282Z,8.80
2017-10-26T03:24:24.767Z,8.67
2017-10-26T03:26:52.309Z,9.67
2017-10-26T03:29:19.766Z,9.53
2017-10-26T03:31:47.229Z,8.70
2017-10-26T03:34:14.694Z,8.73
2017-10-26T03:36:42.153Z,11.13
2017-10-26T03:39:09.609Z,9.37
2017-10-26T03:41:37.062Z,9.40
2017-10-26T03:44:04.519Z,8.63
2017-10-26T03:46:32.059Z,7.97
2017-10-26T03:48:59.561Z,9.37
2017-10-26T03:51:27.893Z,8.67
2017-10-26T03:53:55.452Z,10.90
2017-10-26T03:56:22.998Z,8.73
2017-10-26T03:58:50.558Z,8.27
2017-10-26T04:01:18.025Z,8.53
2017-10-26T04:03:46.974Z,7.07
2017-10-26T04:06:14.434Z,8.53
2017-10-26T04:08:41.880Z,8.03
2017-10-26T04:11:09.333Z,7.50
2017-10-26T04:13:36.776Z,6.77
2017-10-26T04:16:04.247Z,7.60
2017-10-26T04:18:31.706Z,9.10
2017-10-26T04:20:59.146Z,7.70
2017-10-26T04:23:26.616Z,8.10
2017-10-26T04:25:54.082Z,7.80
2017-10-26T04:28:21.538Z,8.13
2017-10-26T04:30:48.981Z,8.00
2017-10-26T04:33:16.449Z,8.90
2017-10-26T04:35:43.897Z,7.30
2017-10-26T04:38:11.355Z,7.93
2017-10-26T04:40:38.825Z,9.77
2017-10-26T04:43:06.285Z,11.10
2017-10-26T04:45:33.749Z,7.67
2017-10-26T04:48:01.189Z,6.53
2017-10-26T04:50:29.038Z,6.97
2017-10-26T04:52:56.497Z,6.60
2017-10-26T04:55:23.937Z,6.87
2017-10-26T04:57:51.389Z,9.47
2017-10-26T05:00:18.833Z,8.40
2017-10-26T05:02:46.358Z,8.00
2017-10-26T05:05:13.816Z,7.00
2017-10-26T05:07:41.272Z,6.53
2017-10-26T05:10:08.742Z,6.93
2017-10-26T05:12:36.953Z,7.43
2017-10-26T05:15:04.389Z,6.17
2017-10-26T05:17:31.825Z,6.80
2017-10-26T05:20:00.069Z,10.27
2017-10-26T05:22:27.535Z,21.00
2017-10-26T05:24:55.077Z,19.57
2017-10-26T05:27:22.520Z,12.40
2017-10-26T05:29:49.978Z,8.27
2017-10-26T05:32:17.462Z,16.23
2017-10-26T05:34:44.909Z,20.80
2017-10-26T05:37:12.370Z,15.43
2017-10-26T05:39:39.834Z,16.10
2017-10-26T05:42:07.321Z,17.33
2017-10-26T05:44:34.765Z,18.70
2017-10-26T05:47:02.973Z,19.30
2017-10-26T05:49:30.462Z,18.70
2017-10-26T05:51:57.923Z,17.30
2017-10-26T05:54:25.378Z,18.27
2017-10-26T05:56:52.842Z,15.10
2017-10-26T05:59:20.321Z,17.23
2017-10-26T06:01:48.537Z,13.70
2017-10-26T06:04:16.024Z,13.47
2017-10-26T06:06:43.563Z,13.83
2017-10-26T06:09:11.193Z,15.13
2017-10-26T06:11:38.679Z,17.47
2017-10-26T06:14:06.132Z,16.33
2017-10-26T06:16:33.593Z,20.20
2017-10-26T06:19:01.045Z,22.13
2017-10-26T06:21:29.210Z,18.13
2017-10-26T06:23:56.681Z,27.90
2017-10-26T06:26:24.238Z,29.33
2017-10-26T06:28:51.803Z,23.93
2017-10-26T06:31:19.253Z,25.83
2017-10-26T06:33:46.753Z,25.20
2017-10-26T06:36:14.212Z,17.53
2017-10-26T06:38:41.670Z,15.93
2017-10-26T06:41:09.129Z,17.33
2017-10-26T06:43:36.580Z,17.57
2017-10-26T06:46:04.044Z,18.40
2017-10-26T06:48:31.473Z,17.63
2017-10-26T06:50:59.709Z,17.10
2017-10-26T06:53:27.197Z,15.57
2017-10-26T06:55:55.444Z,15.83
2017-10-26T06:58:22.907Z,16.20
2017-10-26T07:00:50.381Z,16.37
2017-10-26T07:03:17.836Z,16.10
2017-10-26T07:05:45.375Z,15.50
2017-10-26T07:08:13.844Z,14.13
2017-10-26T07:10:41.409Z,14.83
2017-10-26T07:13:08.905Z,13.40
2017-10-26T07:15:36.361Z,13.37
2017-10-26T07:18:03.814Z,10.50
2017-10-26T07:20:32.033Z,10.53
2017-10-26T07:22:59.477Z,9.13
2017-10-26T07:25:26.953Z,8.07
2017-10-26T07:27:54.547Z,5.70
2017-10-26T07:30:22.745Z,3.87
2017-10-26T07:32:50.197Z,3.70
2017-10-26T07:35:28.125Z,3.30
2017-10-26T07:37:55.572Z,3.53
2017-10-26T07:40:23.025Z,3.77
2017-10-26T07:42:50.461Z,2.30
2017-10-26T07:45:17.923Z,3.13
2017-10-26T07:47:45.393Z,2.57
2017-10-26T07:50:12.839Z,2.97
2017-10-26T07:52:40.293Z,5.83
2017-10-26T07:55:07.750Z,3.40
2017-10-26T07:57:35.227Z,1.93
2017-10-26T08:00:03.199Z,2.20
2017-10-26T08:02:30.754Z,1.67
2017-10-26T08:04:58.213Z,1.37
2017-10-26T08:07:25.692Z,1.40
2017-10-26T08:09:53.229Z,3.47
2017-10-26T08:12:20.793Z,1.70
2017-10-26T08:14:48.226Z,2.33
2017-10-26T08:17:15.677Z,1.33
2017-10-26T08:19:43.122Z,1.50
2017-10-26T08:22:10.605Z,1.73
2017-10-26T08:24:38.057Z,1.67
2017-10-26T08:27:05.514Z,1.40
2017-10-26T08:29:32.997Z,2.73
2017-10-26T08:32:00.461Z,1.50
2017-10-26T08:34:27.984Z,2.20
2017-10-26T08:36:55.459Z,4.00
2017-10-26T08:39:22.919Z,2.20
2017-10-26T08:41:50.358Z,1.57
2017-10-26T08:44:17.904Z,1.63
2017-10-26T08:46:45.370Z,2.53
2017-10-26T08:49:12.931Z,4.83
2017-10-26T08:51:40.490Z,2.07
2017-10-26T08:54:07.949Z,3.83
2017-10-26T08:56:35.389Z,1.50
2017-10-26T08:59:03.538Z,1.90
2017-10-26T09:01:31.021Z,4.10
2017-10-26T09:03:58.478Z,1.63
2017-10-26T09:06:25.933Z,1.80
2017-10-26T09:08:53.391Z,1.43
2017-10-26T09:11:20.841Z,3.33
2017-10-26T09:13:48.292Z,1.83
2017-10-26T09:16:15.737Z,1.70
2017-10-26T09:18:43.245Z,2.40
2017-10-26T09:21:11.457Z,1.73
2017-10-26T09:23:39.807Z,1.70
2017-10-26T09:26:07.326Z,1.93
2017-10-26T09:28:34.781Z,1.40
2017-10-26T09:31:02.254Z,1.90
2017-10-26T09:33:35.400Z,1.93
2017-10-26T09:36:02.849Z,1.70
2017-10-26T09:38:30.304Z,2.93
2017-10-26T09:40:57.784Z,3.43
2017-10-26T09:43:25.345Z,1.70
2017-10-26T09:45:52.897Z,2.73
2017-10-26T09:48:20.336Z,1.30
2017-10-26T09:50:47.812Z,1.30
2017-10-26T09:53:15.264Z,4.60
2017-10-26T09:55:42.817Z,3.00
2017-10-26T09:58:10.273Z,2.97
2017-10-26T10:00:37.726Z,1.27
2017-10-26T10:03:05.188Z,1.30
2017-10-26T10:05:32.645Z,3.40
2017-10-26T10:08:00.104Z,3.30
2017-10-26T10:10:27.665Z,4.20
2017-10-26T10:12:55.112Z,2.27
2017-10-26T10:15:22.746Z,3.07
2017-10-26T10:17:50.308Z,2.60
2017-10-26T10:20:17.796Z,1.97
2017-10-26T10:22:45.237Z,1.77
2017-10-26T10:25:12.680Z,1.90
2017-10-26T10:27:40.153Z,3.20
2017-10-26T10:30:07.629Z,2.50
2017-10-26T10:32:35.076Z,2.07
2017-10-26T10:35:02.641Z,2.17
2017-10-26T10:37:30.205Z,3.23
2017-10-26T10:39:57.656Z,2.57
2017-10-26T10:42:25.201Z,2.33
2017-10-26T10:44:52.651Z,3.07
2017-10-26T10:47:20.094Z,1.93
2017-10-26T10:49:47.570Z,2.77
2017-10-26T10:52:15.033Z,2.63
2017-10-26T10:54:42.482Z,2.20
2017-10-26T10:57:10.041Z,2.13
2017-10-26T10:59:43.240Z,2.30
2017-10-26T11:02:10.701Z,1.57
2017-10-26T11:04:38.148Z,3.30
2017-10-26T11:07:05.656Z,2.10
2017-10-26T11:09:33.082Z,2.13
2017-10-26T11:12:01.305Z,4.20
2017-10-26T11:14:28.753Z,2.10
2017-10-26T11:16:56.193Z,1.70
2017-10-26T11:19:23.676Z,2.23
2017-10-26T11:21:51.132Z,2.90
2017-10-26T11:24:18.561Z,2.67
2017-10-26T11:26:46.041Z,1.67
2017-10-26T11:29:13.602Z,1.73
2017-10-26T11:31:41.044Z,9.47
2017-10-26T11:34:08.508Z,2.53
2017-10-26T11:36:35.949Z,3.13
2017-10-26T11:39:04.177Z,2.10
2017-10-26T11:41:32.413Z,1.43
2017-10-26T11:43:59.874Z,2.20
2017-10-26T11:46:27.360Z,2.03
2017-10-26T11:48:55.609Z,2.07
2017-10-26T11:51:23.069Z,3.90
2017-10-26T11:53:50.540Z,2.60
2017-10-26T11:56:17.976Z,2.90
2017-10-26T11:58:45.446Z,2.00
2017-10-26T12:01:12.895Z,4.30
2017-10-26T12:03:40.347Z,2.30
2017-10-26T12:06:07.841Z,2.07
2017-10-26T12:08:35.313Z,2.63
2017-10-26T12:11:02.804Z,6.37
2017-10-26T12:13:30.254Z,2.03
2017-10-26T12:15:57.721Z,1.90
2017-10-26T12:18:25.181Z,2.27
2017-10-26T12:20:52.625Z,1.73
2017-10-26T12:23:20.081Z,6.10
2017-10-26T12:25:47.542Z,2.37
2017-10-26T12:28:15.001Z,1.80
2017-10-26T12:30:42.463Z,3.30
2017-10-26T12:33:09.902Z,3.90
2017-10-26T12:35:37.350Z,1.80
2017-10-26T12:38:04.800Z,3.10
2017-10-26T12:40:32.284Z,2.00
2017-10-26T12:42:59.816Z,5.30
2017-10-26T12:45:27.273Z,3.70
2017-10-26T12:47:54.713Z,3.43
2017-10-26T12:50:22.162Z,1.70
2017-10-26T12:52:49.605Z,1.80
2017-10-26T12:55:17.101Z,2.70
2017-10-26T12:57:45.586Z,2.17
2017-10-26T13:00:13.034Z,8.17
2017-10-26T13:02:40.500Z,1.60
2017-10-26T13:05:08.053Z,2.70
2017-10-26T13:07:35.493Z,2.60
2017-10-26T13:10:02.948Z,2.33
2017-10-26T13:12:30.397Z,2.03
2017-10-26T13:14:57.865Z,2.07
2017-10-26T13:17:25.312Z,2.03
2017-10-26T13:19:52.773Z,1.30
2017-10-26T13:22:20.241Z,2.03
2017-10-26T13:24:47.701Z,1.77
2017-10-26T13:27:15.171Z,3.30
2017-10-26T13:29:42.633Z,2.57
2017-10-26T13:32:10.068Z,1.60
2017-10-26T13:34:37.661Z,2.83
2017-10-26T13:37:05.872Z,3.50
2017-10-26T13:39:33.369Z,1.70
2017-10-26T13:42:00.866Z,2.40
2017-10-26T13:44:28.317Z,1.60
2017-10-26T13:46:55.760Z,2.70
2017-10-26T13:49:23.981Z,2.93
2017-10-26T13:51:51.437Z,1.83
2017-10-26T13:54:18.893Z,2.10
2017-10-26T13:56:46.352Z,2.63
2017-10-26T13:59:13.810Z,1.90
2017-10-26T14:01:41.273Z,2.40
2017-10-26T14:04:08.829Z,2.27
2017-10-26T14:06:36.389Z,2.70
2017-10-26T14:09:03.833Z,3.43
2017-10-26T14:11:31.717Z,2.40
2017-10-26T14:13:59.278Z,1.50
2017-10-26T14:16:26.742Z,2.37
2017-10-26T14:18:54.181Z,2.93
2017-10-26T14:21:21.732Z,2.97
2017-10-26T14:23:49.188Z,1.87
2017-10-26T14:26:16.741Z,3.77
2017-10-26T14:28:44.180Z,4.70
2017-10-26T14:31:11.638Z,2.33
2017-10-26T14:33:39.081Z,2.23
2017-10-26T14:36:06.537Z,4.63
2017-10-26T14:38:34.013Z,6.03
2017-10-26T14:41:01.465Z,3.80
2017-10-26T14:43:28.913Z,2.20
2017-10-26T14:45:56.362Z,3.20
2017-10-26T14:48:23.817Z,1.80
2017-10-26T14:50:51.263Z,1.73
2017-10-26T14:53:18.708Z,3.20
2017-10-26T14:55:46.200Z,5.03
2017-10-26T14:58:13.656Z,3.00
2017-10-26T15:00:41.117Z,3.23
2017-10-26T15:03:08.564Z,2.77
2017-10-26T15:05:36.034Z,3.13
2017-10-26T15:08:03.512Z,3.23
2017-10-26T15:10:30.961Z,2.80
2017-10-26T15:12:58.523Z,3.33
2017-10-26T15:15:25.981Z,2.67
2017-10-26T15:17:53.437Z,2.87
2017-10-26T15:20:21.641Z,2.47
2017-10-26T15:22:49.084Z,2.50
2017-10-26T15:25:16.594Z,3.17
2017-10-26T15:27:44.158Z,4.17
2017-10-26T15:30:11.713Z,2.70
2017-10-26T15:32:39.261Z,4.70
2017-10-26T15:35:06.718Z,3.70
2017-10-26T15:37:34.172Z,2.80
2017-10-26T15:40:01.622Z,2.93
2017-10-26T15:42:29.069Z,2.50
2017-10-26T15:44:56.566Z,4.83
2017-10-26T15:47:24.078Z,3.53
2017-10-26T15:49:51.530Z,2.70
2017-10-26T15:52:19.088Z,3.10
2017-10-26T15:54:46.537Z,6.97
2017-10-26T15:57:14.022Z,4.00
2017-10-26T15:59:41.581Z,9.40
2017-10-26T16:02:09.022Z,6.53
2017-10-26T16:04:36.468Z,8.53
2017-10-26T16:07:03.949Z,4.30
2017-10-26T16:09:31.397Z,3.47
2017-10-26T16:11:58.856Z,5.23
2017-10-26T16:14:26.417Z,5.17
2017-10-26T16:16:53.872Z,4.80
2017-10-26T16:19:21.330Z,3.13
2017-10-26T16:21:48.778Z,3.33
2017-10-26T16:24:17.177Z,3.47
2017-10-26T16:26:44.651Z,4.40
2017-10-26T16:29:12.129Z,4.37
2017-10-26T16:31:39.582Z,3.93
2017-10-26T16:34:07.013Z,3.63
2017-10-26T16:36:35.277Z,4.03
2017-10-26T16:39:02.713Z,5.40
2017-10-26T16:41:30.164Z,6.73
2017-10-26T16:43:57.625Z,5.00
2017-10-26T16:46:25.076Z,5.87
2017-10-26T16:48:52.621Z,5.27
2017-10-26T16:51:20.093Z,7.87
2017-10-26T16:53:47.548Z,7.13
2017-10-26T16:56:15.096Z,8.37
2017-10-26T16:58:42.571Z,12.10
2017-10-26T17:01:10.061Z,6.30
2017-10-26T17:03:38.277Z,9.27
2017-10-26T17:06:05.749Z,8.77
2017-10-26T17:08:33.192Z,9.20
2017-10-26T17:11:00.661Z,10.37
2017-10-26T17:13:28.125Z,10.13
2017-10-26T17:15:55.581Z,14.03
2017-10-26T17:18:23.036Z,12.60
2017-10-26T17:20:50.480Z,14.13
2017-10-26T17:23:17.924Z,12.63
2017-10-26T17:25:45.397Z,12.50
2017-10-26T17:28:12.863Z,12.00
2017-10-26T17:30:40.365Z,13.23
2017-10-26T17:33:07.860Z,14.30
2017-10-26T17:35:35.309Z,15.83
2017-10-26T17:38:02.770Z,21.43
2017-10-26T17:40:30.224Z,22.73
2017-10-26T17:43:08.357Z,23.70
2017-10-26T17:45:35.886Z,21.27
2017-10-26T17:48:03.448Z,22.43
2017-10-26T17:50:30.905Z,20.73
2017-10-26T17:52:58.448Z,23.87
2017-10-26T17:55:26.670Z,25.13
2017-10-26T17:57:54.896Z,24.90
2017-10-26T18:00:22.357Z,25.90
2017-10-26T18:02:49.835Z,26.10
2017-10-26T18:05:17.375Z,25.30
2017-10-26T18:07:44.942Z,24.17
2017-10-26T18:10:12.389Z,26.20
2017-10-26T18:12:39.940Z,23.90
2017-10-26T18:15:07.401Z,24.97
2017-10-26T18:17:34.857Z,28.20
2017-10-26T18:20:02.343Z,29.03
2017-10-26T18:22:29.872Z,27.13
2017-10-26T18:24:57.331Z,25.57
2017-10-26T18:27:24.792Z,26.30
2017-10-26T18:29:52.244Z,26.40
2017-10-26T18:32:19.717Z,25.77
2017-10-26T18:34:47.309Z,24.93
2017-10-26T18:37:14.796Z,25.93
2017-10-26T18:39:42.249Z,25.10
2017-10-26T18:42:09.725Z,25.23
2017-10-26T18:44:37.185Z,24.40
2017-10-26T18:47:04.659Z,21.80
2017-10-26T18:49:32.921Z,23.43
2017-10-26T18:52:00.485Z,20.97
2017-10-26T18:54:27.952Z,21.40
2017-10-26T18:56:56.219Z,23.60
2017-10-26T18:59:23.752Z,21.03
2017-10-26T19:01:51.278Z,21.90
2017-10-26T19:04:18.721Z,20.30
2017-10-26T19:06:46.165Z,20.53
2017-10-26T19:09:13.623Z,21.57
2017-10-26T19:11:41.087Z,21.10
2017-10-26T19:14:08.536Z,20.80
2017-10-26T19:16:36.017Z,21.47
2017-10-26T19:19:03.473Z,19.93
2017-10-26T19:21:30.935Z,21.87
2017-10-26T19:23:58.461Z,19.87
2017-10-26T19:26:25.968Z,20.27
2017-10-26T19:28:53.418Z,20.67
2017-10-26T19:31:20.869Z,20.13
2017-10-26T19:33:48.316Z,17.87
2017-10-26T19:36:15.781Z,17.63
2017-10-26T19:38:43.385Z,17.90
2017-10-26T19:41:11.601Z,19.40
2017-10-26T19:43:39.049Z,21.27
2017-10-26T19:46:06.501Z,18.87
2017-10-26T19:48:36.012Z,19.30
2017-10-26T19:51:03.489Z,18.40
2017-10-26T19:53:31.053Z,17.13
2017-10-26T19:55:58.602Z,15.97
2017-10-26T19:58:26.049Z,15.80
2017-10-26T20:00:53.505Z,16.87
2017-10-26T20:03:20.949Z,17.40
2017-10-26T20:05:48.499Z,15.27
2017-10-26T20:08:15.928Z,14.97
2017-10-26T20:10:44.256Z,16.03
2017-10-26T20:13:11.830Z,15.50
2017-10-26T20:15:39.292Z,15.47
2017-10-26T20:18:06.754Z,16.73
2017-10-26T20:20:34.205Z,16.67
2017-10-26T20:23:01.660Z,16.73
2017-10-26T20:25:29.121Z,16.17
2017-10-26T20:27:57.382Z,16.57
2017-10-26T20:30:24.932Z,15.77
2017-10-26T20:32:52.432Z,16.40
2017-10-26T20:35:19.937Z,16.87
2017-10-26T20:37:47.501Z,16.90
2017-10-26T20:40:14.970Z,15.57
2017-10-26T20:42:43.399Z,16.20
2017-10-26T20:45:10.844Z,15.80
2017-10-26T20:47:38.301Z,15.70
2017-10-26T20:50:11.557Z,18.37
2017-10-26T20:52:45.577Z,16.27
2017-10-26T20:55:19.642Z,16.57
2017-10-26T21:01:03.557Z,15.20
2017-10-26T21:03:36.643Z,15.80
2017-10-26T21:06:10.714Z,15.20
2017-10-26T21:08:44.893Z,16.43
2017-10-26T21:11:17.918Z,15.00
2017-10-26T21:13:51.157Z,14.73
2017-10-26T21:16:18.628Z,14.13
2017-10-26T21:18:46.091Z,13.43
2017-10-26T21:21:13.549Z,13.67
2017-10-26T21:23:41.005Z,12.40
2017-10-26T21:26:08.461Z,11.40
2017-10-26T21:28:35.925Z,10.77
2017-10-26T21:31:03.376Z,10.60
2017-10-26T21:36:29.733Z,10.20
2017-10-26T21:38:57.189Z,12.07
2017-10-26T21:41:24.644Z,9.83
2017-10-26T21:43:52.109Z,9.10
2017-10-26T21:46:19.571Z,11.07
2017-10-26T21:48:47.053Z,9.23
2017-10-26T21:51:15.289Z,9.40
2017-10-26T21:53:42.857Z,8.17
2017-10-26T21:56:10.322Z,8.27
2017-10-26T21:58:37.803Z,8.47
2017-10-26T22:01:06.024Z,8.10
2017-10-26T22:03:33.593Z,7.80
2017-10-26T22:06:01.140Z,8.47
2017-10-26T22:08:28.780Z,7.63
2017-10-26T22:10:56.302Z,8.57
2017-10-26T22:13:23.772Z,8.83
2017-10-26T22:15:51.285Z,7.23
2017-10-26T22:18:18.772Z,7.87
2017-10-26T22:20:47.084Z,7.73
2017-10-26T22:23:14.583Z,6.10
2017-10-26T22:25:42.096Z,5.73
2017-10-26T22:28:09.570Z,7.00
2017-10-26T22:30:37.148Z,6.73
2017-10-26T22:33:04.613Z,6.37
2017-10-26T22:35:32.162Z,7.03
2017-10-26T22:37:59.726Z,6.30
2017-10-26T22:40:27.233Z,6.83
2017-10-26T22:42:54.708Z,6.63
2017-10-26T22:45:22.157Z,6.33
2017-10-26T22:47:49.626Z,6.30
2017-10-26T22:50:17.196Z,6.63
2017-10-26T22:52:44.625Z,5.90
2017-10-26T22:55:12.084Z,5.37
2017-10-26T22:57:39.517Z,6.00
2017-10-26T23:00:11.841Z,6.30
2017-10-26T23:02:39.385Z,6.20
2017-10-26T23:05:06.832Z,6.20
2017-10-26T23:07:34.283Z,5.40
2017-10-26T23:10:01.741Z,5.23
2017-10-26T23:12:29.194Z,8.03
2017-10-26T23:14:56.640Z,6.07
2017-10-26T23:17:24.104Z,5.40
2017-10-26T23:19:51.553Z,5.90
2017-10-26T23:22:19.025Z,6.57
2017-10-26T23:24:46.480Z,5.80
2017-10-26T23:27:14.060Z,5.50
2017-10-26T23:29:41.679Z,5.40
2017-10-26T23:32:09.166Z,5.20
2017-10-26T23:34:36.724Z,5.03
2017-10-26T23:37:04.186Z,5.63
2017-10-26T23:39:31.641Z,5.27
2017-10-26T23:41:59.084Z,6.07
2017-10-26T23:44:26.529Z,4.00
2017-10-26T23:46:53.989Z,4.80
2017-10-26T23:49:21.437Z,4.57
2017-10-26T23:51:49.012Z,4.90
2017-10-26T23:54:16.554Z,5.30
2017-10-26T23:56:44.012Z,5.17
2017-10-26T23:59:11.465Z,5.40
